Estación Meteorológica Peña el Pijo (Robertgarden) [ 01/30/23 14:31:16 CET ]

Fecha Hora Presion(HPa) Temp (°C) Humedad % Rocio (°C) Viento ( m/s) Direccion Lluvia 1Hora(mm) Lluvia 24H(mm) LLuvia Total(mm)
2010-Nov-18 01:01:18 1006.200 5.8 66 -0.1         2.07
2010-Nov-18 02:03:17 1005.900 5.8 67 0.1         2.07
2010-Nov-18 03:01:14 1006.100 5.2 67 -0.4         2.07
2010-Nov-18 04:01:13 1006.200 4.3 70 -0.8         2.07
2010-Nov-18 05:01:13 1006.200 2.9 75 -1.1         2.07
2010-Nov-18 06:01:14 1006.300 2.3 78 -1.2         2.07
2010-Nov-18 07:01:14 1006.700 1.3 80 -1.8         2.07
2010-Nov-18 08:01:17 1007.100 0.1 82 -2.6         2.07
2010-Nov-18 09:01:12 1007.700 1.3 88 -0.5         2.07
2010-Nov-18 10:01:13 1008.500 9.5 61 2.4         2.07
2010-Nov-18 11:01:17 1008.400 10.4 51 0.7         2.07
2010-Nov-18 12:01:14 1008.600 11.6 47 0.6         2.07
2010-Nov-18 13:01:18 1008.000 12.9 41 -0.1         2.07
2010-Nov-18 14:01:14 1007.700 13.5 39 -0.2         2.07
2010-Nov-18 15:01:14 1007.300 14.0 38 -0.2         2.07
2010-Nov-18 16:01:16 1007.700 12.9 38 -1.2         2.07
2010-Nov-18 17:01:12 1008.400 8.8 47 -2.0         2.07
2010-Nov-18 18:01:14 1009.200 6.7 55 -1.7         2.07
2010-Nov-18 19:01:11 1009.500 4.5 61 -2.4         2.07
2010-Nov-18 20:01:16 1009.900 2.4 68 -2.9         2.07
2010-Nov-18 21:01:14 1010.500 1.4 72 -3.1         2.07
2010-Nov-18 22:01:13 1010.600 0.9 75 -3.1         2.07
2010-Nov-18 23:01:17 1010.600 0.5 76 -3.3         2.07

Temperatura Máxima:14°    Temperatura Mínima:
Presión Máxima:1010.600 Hpa    Presión Mínima:1005.900 Hpa


Volver